createdAt,value
2022-12-25T00:06:48.510Z,9.2
2022-12-25T00:21:48.536Z,9.2
2022-12-25T00:36:48.526Z,9.2
2022-12-25T00:51:48.492Z,9.1
2022-12-25T01:06:48.526Z,8.9
2022-12-25T01:21:48.517Z,9
2022-12-25T01:36:48.503Z,9
2022-12-25T01:51:48.495Z,8.9
2022-12-25T02:06:48.495Z,8.9
2022-12-25T02:21:48.490Z,8.9
2022-12-25T02:36:48.509Z,8.7
2022-12-25T02:51:48.505Z,8.6
2022-12-25T03:06:48.527Z,8.4
2022-12-25T03:21:48.522Z,8.2
2022-12-25T03:36:48.501Z,8.3
2022-12-25T03:51:48.538Z,8.2
2022-12-25T04:06:48.517Z,8.4
2022-12-25T04:21:48.530Z,8.5
2022-12-25T04:36:48.529Z,8.4
2022-12-25T04:51:48.504Z,8.2
2022-12-25T05:06:48.502Z,8.2
2022-12-25T05:21:48.502Z,8.1
2022-12-25T05:36:48.514Z,8
2022-12-25T05:51:48.521Z,7.9
2022-12-25T06:06:48.534Z,7.9
2022-12-25T06:21:48.523Z,7.8
2022-12-25T06:36:48.521Z,7.9
2022-12-25T06:51:48.447Z,7.9
2022-12-25T07:06:48.523Z,8
2022-12-25T07:21:48.533Z,7.9
2022-12-25T07:36:48.481Z,7.9
2022-12-25T07:51:48.512Z,8.1
2022-12-25T08:06:48.489Z,7.9
2022-12-25T08:21:48.517Z,8
2022-12-25T08:36:48.535Z,8.2
2022-12-25T08:51:48.523Z,8.2
2022-12-25T09:06:48.533Z,8.2
2022-12-25T09:21:48.518Z,8.1
2022-12-25T09:36:48.533Z,8
2022-12-25T09:51:48.503Z,7.9
2022-12-25T10:06:48.537Z,8.1
2022-12-25T10:21:48.523Z,8
2022-12-25T10:36:48.449Z,8.1
2022-12-25T10:51:48.491Z,8.3
2022-12-25T11:06:48.535Z,8.5
2022-12-25T11:21:48.502Z,8.4
2022-12-25T11:36:48.578Z,8.4
2022-12-25T11:51:48.520Z,8.4
2022-12-25T12:06:48.523Z,8.5
2022-12-25T12:21:48.453Z,8.6
2022-12-25T12:36:48.505Z,8.7
2022-12-25T12:51:48.537Z,8.9
2022-12-25T13:06:48.526Z,8.9
2022-12-25T13:21:48.500Z,9.2
2022-12-25T13:36:48.523Z,9.3
2022-12-25T13:51:48.542Z,9.4
2022-12-25T14:06:48.506Z,9.6
2022-12-25T14:21:48.525Z,9.9
2022-12-25T14:36:48.498Z,10.2
2022-12-25T14:51:48.509Z,10.1
2022-12-25T15:06:48.556Z,10.4
2022-12-25T15:21:48.532Z,10.5
2022-12-25T15:36:48.554Z,11.1
2022-12-25T15:51:48.500Z,11.4
2022-12-25T16:06:48.474Z,11.4
2022-12-25T16:21:48.539Z,11.5
2022-12-25T16:36:48.435Z,11.7
2022-12-25T16:51:48.477Z,11.8
2022-12-25T17:06:48.541Z,11.8
2022-12-25T17:21:48.516Z,11.7
2022-12-25T17:36:48.539Z,11.8
2022-12-25T17:51:48.529Z,11.8
2022-12-25T18:06:48.518Z,11.7
2022-12-25T18:21:48.524Z,11.7
2022-12-25T18:36:48.525Z,11.8
2022-12-25T18:51:48.502Z,11.6
2022-12-25T19:06:48.547Z,11.5
2022-12-25T19:21:48.516Z,11.3
2022-12-25T19:36:48.492Z,11.1
2022-12-25T19:51:48.524Z,11.2
2022-12-25T20:06:48.549Z,11.2
2022-12-25T20:21:48.543Z,11.1
2022-12-25T20:36:48.474Z,11.2
2022-12-25T20:51:48.518Z,11.4
2022-12-25T21:06:48.535Z,11.7
2022-12-25T21:21:48.503Z,11.8
2022-12-25T21:36:48.474Z,11.5
2022-12-25T21:51:48.505Z,11.3
2022-12-25T22:06:48.487Z,10.8
2022-12-25T22:21:48.545Z,10.8
2022-12-25T22:36:48.423Z,10.9
2022-12-25T22:51:48.501Z,11.1
2022-12-25T23:06:48.531Z,10.9
2022-12-25T23:21:48.527Z,10.8
2022-12-25T23:36:48.496Z,11
2022-12-25T23:51:48.515Z,11.1
